Time;durP1;ratioP1;P1;durP2;ratioP2;P2;SDS_P1;SDS_P2;PMS_P1;PMS_P2;Temp;Humidity;BMP_temperature;BMP_pressure;BME280_temperature;BME280_humidity;BME280_pressure;Samples;Min_cycle;Max_cycle;Signal;HPM_P1;HPM_P2
2023/08/14 00:01:20;;;;;;;1.80;1.30;;;20.40;99.90;;;;;;4130075;28;20030;-69
2023/08/14 00:03:21;;;;;;;2.28;1.15;;;20.30;99.90;;;;;;4132906;28;20126;-68
2023/08/14 00:05:22;;;;;;;3.72;1.45;;;20.30;99.90;;;;;;4130664;28;20030;-69
2023/08/14 00:07:22;;;;;;;2.45;1.30;;;20.30;99.90;;;;;;4131843;28;20026;-69
2023/08/14 00:09:23;;;;;;;1.83;0.95;;;20.30;99.90;;;;;;4125868;28;20089;-69
2023/08/14 00:11:24;;;;;;;2.15;1.20;;;20.30;99.90;;;;;;4122986;28;20031;-69
2023/08/14 00:13:25;;;;;;;2.83;1.30;;;20.20;99.90;;;;;;4126519;28;20039;-69
2023/08/14 00:15:25;;;;;;;1.48;1.10;;;20.20;99.90;;;;;;4142382;28;20045;-69
2023/08/14 00:17:26;;;;;;;1.88;1.30;;;20.20;99.90;;;;;;4136565;28;20048;-71
2023/08/14 00:19:26;;;;;;;2.20;1.33;;;20.20;99.90;;;;;;4129301;28;20470;-73
2023/08/14 00:21:27;;;;;;;3.20;1.25;;;20.10;99.90;;;;;;4131768;28;20389;-73
2023/08/14 00:23:27;;;;;;;2.20;1.30;;;20.10;99.90;;;;;;4132656;28;20057;-73
2023/08/14 00:25:28;;;;;;;3.85;1.30;;;20.10;99.90;;;;;;4132760;28;20097;-73
2023/08/14 00:27:29;;;;;;;1.45;1.00;;;20.10;99.90;;;;;;4110056;28;20469;-69
2023/08/14 00:29:29;;;;;;;1.90;1.17;;;20.00;99.90;;;;;;4135058;28;20038;-69
2023/08/14 00:31:30;;;;;;;2.63;1.05;;;20.00;99.90;;;;;;4132227;28;20052;-69
2023/08/14 00:33:31;;;;;;;2.42;1.23;;;19.90;99.90;;;;;;4138106;28;20089;-69
2023/08/14 00:35:31;;;;;;;4.00;1.58;;;19.80;99.90;;;;;;4134552;28;20118;-69
2023/08/14 00:37:49;;;;;;;1.92;1.13;;;19.90;99.90;;;;;;4131063;28;20048;-66
2023/08/14 00:39:50;;;;;;;1.77;1.08;;;19.90;99.90;;;;;;4117846;28;20557;-66
2023/08/14 00:41:51;;;;;;;3.30;1.55;;;19.90;99.90;;;;;;4135790;28;20046;-66
2023/08/14 00:43:52;;;;;;;1.50;1.10;;;19.80;99.90;;;;;;4128184;28;20034;-66
2023/08/14 00:45:58;;;;;;;2.33;1.08;;;19.80;99.90;;;;;;4126465;28;20564;-66
2023/08/14 00:47:59;;;;;;;2.83;1.10;;;19.80;99.90;;;;;;4136109;28;20113;-66
2023/08/14 00:50:00;;;;;;;1.77;0.90;;;19.80;99.90;;;;;;4134601;28;20050;-67
2023/08/14 00:52:01;;;;;;;1.50;1.20;;;19.70;99.90;;;;;;4132385;28;20184;-66
2023/08/14 00:54:02;;;;;;;1.95;1.35;;;19.70;99.90;;;;;;4131239;28;20034;-67
2023/08/14 00:56:03;;;;;;;2.25;1.35;;;19.80;99.90;;;;;;4141087;28;20109;-66
2023/08/14 00:58:04;;;;;;;2.45;1.52;;;19.70;99.90;;;;;;4128857;28;20389;-67
2023/08/14 01:00:06;;;;;;;3.00;1.40;;;19.80;99.90;;;;;;4126689;28;20040;-67
2023/08/14 01:02:07;;;;;;;2.75;1.20;;;19.70;99.90;;;;;;4124308;28;20053;-66
2023/08/14 01:04:07;;;;;;;2.28;1.30;;;19.80;99.90;;;;;;4124871;28;20069;-66
2023/08/14 01:06:08;;;;;;;3.33;1.50;;;19.80;99.90;;;;;;4135417;28;20095;-67
2023/08/14 01:08:08;;;;;;;3.92;1.50;;;19.80;99.90;;;;;;4126211;28;20041;-67
2023/08/14 01:10:10;;;;;;;2.50;1.23;;;19.80;99.90;;;;;;4130506;28;20041;-66
2023/08/14 01:12:30;;;;;;;2.33;1.00;;;19.80;99.90;;;;;;4120645;28;20137;-66
2023/08/14 01:14:32;;;;;;;1.88;1.10;;;19.70;99.90;;;;;;4126878;28;20380;-66
2023/08/14 01:16:38;;;;;;;2.90;1.40;;;19.70;99.90;;;;;;4119162;28;20396;-67
2023/08/14 01:18:40;;;;;;;1.95;1.20;;;19.60;99.90;;;;;;4140588;28;20066;-67
2023/08/14 01:20:44;;;;;;;4.32;1.25;;;19.60;99.90;;;;;;4121080;28;20122;-67
2023/08/14 01:23:23;;;;;;;2.13;1.10;;;19.60;99.90;;;;;;4124845;28;20096;-67
2023/08/14 01:25:33;;;;;;;1.48;0.90;;;19.50;99.90;;;;;;4132195;28;20563;-67
2023/08/14 01:27:33;;;;;;;2.17;0.98;;;19.60;99.90;;;;;;4131576;28;20038;-66
2023/08/14 01:29:34;;;;;;;1.80;0.98;;;19.60;99.90;;;;;;4133999;28;20061;-66
2023/08/14 01:31:35;;;;;;;2.28;1.33;;;19.50;99.90;;;;;;4133276;28;20034;-66
2023/08/14 01:33:35;;;;;;;2.65;1.40;;;19.50;99.90;;;;;;4126451;28;20030;-66
2023/08/14 01:35:47;;;;;;;1.77;1.00;;;19.40;99.90;;;;;;4126342;28;20398;-66
2023/08/14 01:38:10;;;;;;;1.75;1.17;;;19.40;99.90;;;;;;4121484;28;20060;-67
2023/08/14 01:40:18;;;;;;;4.53;1.42;;;19.40;99.90;;;;;;4127048;28;20030;-67
2023/08/14 01:42:47;;;;;;;2.92;1.23;;;19.40;99.90;;;;;;4136253;28;20034;-67
2023/08/14 01:44:50;;;;;;;1.80;1.05;;;19.40;99.90;;;;;;4126078;28;20038;-67
2023/08/14 01:46:53;;;;;;;2.70;1.13;;;19.40;99.90;;;;;;4125140;28;20040;-68
2023/08/14 01:48:59;;;;;;;1.92;1.08;;;19.40;99.90;;;;;;4132203;28;20034;-66
2023/08/14 01:51:00;;;;;;;2.28;1.15;;;19.40;99.90;;;;;;4121413;28;20034;-66
2023/08/14 01:53:01;;;;;;;1.83;1.00;;;19.40;99.90;;;;;;4137314;28;20387;-68
2023/08/14 01:55:02;;;;;;;2.83;1.30;;;19.40;99.90;;;;;;4125448;28;20041;-67
2023/08/14 01:57:03;;;;;;;2.28;1.13;;;19.40;99.90;;;;;;4117779;28;20030;-68
2023/08/14 01:59:03;;;;;;;2.38;0.95;;;19.40;99.90;;;;;;4117954;28;20440;-66
2023/08/14 02:01:04;;;;;;;1.52;1.05;;;19.30;99.90;;;;;;4125865;28;20125;-66
2023/08/14 02:03:05;;;;;;;2.88;1.30;;;19.30;99.90;;;;;;4125603;28;20042;-66
2023/08/14 02:05:06;;;;;;;3.38;1.35;;;19.30;99.90;;;;;;4128690;28;20038;-67
2023/08/14 02:07:09;;;;;;;2.13;1.50;;;19.30;99.90;;;;;;4119830;28;20622;-66
2023/08/14 02:09:10;;;;;;;1.88;1.20;;;19.30;99.90;;;;;;4123906;28;20399;-66
2023/08/14 02:11:10;;;;;;;1.55;1.00;;;19.30;99.90;;;;;;4127900;28;20038;-67
2023/08/14 02:13:11;;;;;;;1.95;1.20;;;19.30;99.90;;;;;;4124180;28;20058;-67
2023/08/14 02:15:12;;;;;;;3.90;1.33;;;19.30;99.90;;;;;;4127565;28;20396;-66
2023/08/14 02:17:12;;;;;;;2.28;1.38;;;19.30;99.90;;;;;;4127642;28;20057;-67
2023/08/14 02:19:13;;;;;;;1.65;1.40;;;19.30;99.90;;;;;;4127952;28;20134;-66
2023/08/14 02:21:14;;;;;;;1.13;0.82;;;19.30;99.90;;;;;;4121536;28;20403;-66
2023/08/14 02:23:14;;;;;;;2.55;1.15;;;19.20;99.90;;;;;;4127079;28;20040;-66
2023/08/14 02:25:15;;;;;;;5.40;1.45;;;19.20;99.90;;;;;;4125431;28;20076;-67
2023/08/14 02:27:16;;;;;;;1.80;1.05;;;19.20;99.90;;;;;;4135829;28;20034;-66
2023/08/14 02:29:19;;;;;;;3.08;1.23;;;19.20;99.90;;;;;;4128660;28;20125;-67
2023/08/14 02:31:20;;;;;;;4.50;1.17;;;19.20;99.90;;;;;;4128573;28;20026;-68
2023/08/14 02:33:20;;;;;;;2.17;1.23;;;19.20;99.90;;;;;;4115364;28;20518;-66
2023/08/14 02:35:21;;;;;;;2.22;1.02;;;19.20;99.90;;;;;;4119570;28;20043;-66
2023/08/14 02:37:22;;;;;;;2.90;1.33;;;19.20;99.90;;;;;;4124442;28;20034;-66
2023/08/14 02:39:23;;;;;;;3.45;1.30;;;19.20;99.90;;;;;;4129682;28;20084;-66
2023/08/14 02:41:29;;;;;;;2.97;1.10;;;19.20;99.90;;;;;;4116456;28;20074;-66
2023/08/14 02:43:30;;;;;;;2.25;1.10;;;19.10;99.90;;;;;;4125627;28;20026;-67
2023/08/14 02:45:31;;;;;;;2.10;1.10;;;19.20;99.90;;;;;;4134347;28;20645;-66
2023/08/14 02:47:31;;;;;;;3.97;0.95;;;19.10;99.90;;;;;;4126818;28;20045;-67
2023/08/14 02:49:32;;;;;;;1.00;0.90;;;19.20;99.90;;;;;;4119146;28;20080;-66
2023/08/14 02:51:32;;;;;;;1.77;0.95;;;19.10;99.90;;;;;;4132650;28;20038;-66
2023/08/14 02:53:33;;;;;;;2.92;1.10;;;19.10;99.90;;;;;;4124927;28;20042;-68
2023/08/14 02:55:34;;;;;;;1.23;0.95;;;19.10;99.90;;;;;;4116018;28;20439;-67
2023/08/14 02:57:34;;;;;;;1.58;1.00;;;19.10;99.90;;;;;;4120576;28;20471;-66
2023/08/14 02:59:35;;;;;;;1.25;0.95;;;19.10;99.90;;;;;;4124662;28;20121;-66
2023/08/14 03:01:36;;;;;;;1.15;0.88;;;19.10;99.90;;;;;;4123469;28;20034;-66
2023/08/14 03:03:37;;;;;;;1.40;1.10;;;19.10;99.90;;;;;;4122486;28;20050;-66
2023/08/14 03:05:38;;;;;;;2.40;1.20;;;19.10;99.90;;;;;;4140287;28;20558;-66
2023/08/14 03:07:39;;;;;;;1.60;1.00;;;19.00;99.90;;;;;;4123047;28;20038;-69
2023/08/14 03:09:39;;;;;;;1.25;0.85;;;19.10;99.90;;;;;;4122839;28;20214;-68
2023/08/14 03:11:40;;;;;;;2.22;1.10;;;19.00;99.90;;;;;;4105676;28;20098;-69
2023/08/14 03:13:41;;;;;;;2.88;1.00;;;19.00;99.90;;;;;;4130811;28;20053;-69
2023/08/14 03:15:41;;;;;;;1.65;1.10;;;19.00;99.90;;;;;;4109448;28;20035;-69
2023/08/14 03:17:45;;;;;;;1.15;0.90;;;19.00;99.90;;;;;;4128778;28;20538;-67
2023/08/14 03:19:46;;;;;;;1.80;1.27;;;19.00;99.90;;;;;;4128321;28;20121;-66
2023/08/14 03:21:50;;;;;;;1.90;1.33;;;19.00;99.90;;;;;;4136108;28;20081;-66
2023/08/14 03:23:51;;;;;;;1.55;1.05;;;19.00;99.90;;;;;;4101260;28;20496;-67
2023/08/14 03:25:52;;;;;;;1.30;0.98;;;18.90;99.90;;;;;;4128537;28;20030;-66
2023/08/14 03:27:52;;;;;;;1.33;1.10;;;18.90;99.90;;;;;;4113495;28;20520;-67
2023/08/14 03:29:53;;;;;;;1.25;1.08;;;18.90;99.90;;;;;;4139913;28;20503;-66
2023/08/14 03:31:54;;;;;;;2.38;1.00;;;18.90;99.90;;;;;;4130255;28;20107;-66
2023/08/14 03:33:54;;;;;;;2.28;1.30;;;18.90;99.90;;;;;;4125725;28;20113;-66
2023/08/14 03:35:55;;;;;;;2.40;0.95;;;18.90;99.90;;;;;;4130845;28;20137;-66
2023/08/14 03:37:55;;;;;;;3.72;1.45;;;18.80;99.90;;;;;;4133286;28;20097;-70
2023/08/14 03:39:59;;;;;;;1.23;1.02;;;18.80;99.90;;;;;;4125642;28;20090;-66
2023/08/14 03:42:02;;;;;;;2.22;1.10;;;18.80;99.90;;;;;;4132355;28;20034;-66
2023/08/14 03:44:03;;;;;;;1.80;1.08;;;18.80;99.90;;;;;;4135281;28;20022;-67
2023/08/14 03:46:07;;;;;;;1.85;1.00;;;18.80;99.90;;;;;;4110352;28;20035;-69
2023/08/14 03:48:10;;;;;;;1.60;0.98;;;18.80;99.90;;;;;;4135390;28;20671;-67
2023/08/14 03:50:11;;;;;;;1.15;1.00;;;18.70;99.90;;;;;;4126151;28;20057;-67
2023/08/14 03:52:14;;;;;;;2.72;1.10;;;18.70;99.90;;;;;;4128258;28;20109;-66
2023/08/14 03:54:15;;;;;;;1.80;1.08;;;18.70;99.90;;;;;;4128502;28;20113;-66
2023/08/14 03:56:15;;;;;;;2.33;1.20;;;18.70;99.90;;;;;;4133229;28;20068;-66
2023/08/14 03:58:17;;;;;;;1.73;1.10;;;18.60;99.90;;;;;;4132718;28;20049;-66
2023/08/14 04:00:18;;;;;;;1.90;1.00;;;18.60;99.90;;;;;;4123939;28;20700;-66
2023/08/14 04:02:18;;;;;;;3.13;1.17;;;18.50;99.90;;;;;;4126665;28;20282;-67
2023/08/14 04:04:19;;;;;;;1.58;1.10;;;18.50;99.90;;;;;;4124303;28;20046;-67
2023/08/14 04:06:20;;;;;;;3.63;1.20;;;18.40;99.90;;;;;;4132100;28;20498;-66
2023/08/14 04:08:20;;;;;;;1.88;1.40;;;18.40;99.90;;;;;;4127098;28;20073;-67
2023/08/14 04:10:22;;;;;;;2.03;1.30;;;18.40;99.90;;;;;;4126261;28;20070;-66
2023/08/14 04:12:22;;;;;;;2.90;1.52;;;18.40;99.90;;;;;;4124669;28;20066;-67
2023/08/14 04:14:23;;;;;;;2.45;1.50;;;18.30;99.90;;;;;;4121820;28;20490;-66
2023/08/14 04:16:41;;;;;;;1.80;0.95;;;18.30;99.90;;;;;;4120711;28;20042;-66
2023/08/14 04:18:41;;;;;;;3.33;1.20;;;18.30;99.90;;;;;;4124348;28;20081;-68
2023/08/14 04:20:42;;;;;;;1.90;1.05;;;18.30;99.90;;;;;;4132975;28;20072;-69
2023/08/14 04:22:43;;;;;;;1.52;1.27;;;18.30;99.90;;;;;;4121847;28;20031;-66
2023/08/14 04:24:43;;;;;;;1.55;0.93;;;18.30;99.90;;;;;;4118327;28;20055;-67
2023/08/14 04:26:44;;;;;;;3.85;1.20;;;18.40;99.90;;;;;;4110241;28;20118;-68
2023/08/14 04:28:45;;;;;;;1.88;1.02;;;18.40;99.90;;;;;;4116788;28;20408;-66
2023/08/14 04:30:45;;;;;;;3.35;1.15;;;18.40;99.90;;;;;;4136879;28;20034;-67
2023/08/14 04:32:46;;;;;;;4.47;1.35;;;18.30;99.90;;;;;;4123245;28;20077;-66
2023/08/14 04:34:46;;;;;;;1.33;1.10;;;18.30;99.90;;;;;;4125298;28;20042;-68
2023/08/14 04:36:47;;;;;;;1.50;1.15;;;18.40;99.90;;;;;;4124389;28;20027;-69
2023/08/14 04:38:48;;;;;;;1.77;1.20;;;18.30;99.90;;;;;;4126084;28;20100;-69
2023/08/14 04:40:49;;;;;;;1.80;1.23;;;18.30;99.90;;;;;;4134191;28;20042;-68
2023/08/14 04:42:49;;;;;;;5.72;1.50;;;18.30;99.90;;;;;;4125597;28;20058;-69
2023/08/14 04:44:50;;;;;;;1.45;0.98;;;18.30;99.90;;;;;;4123069;28;20038;-68
2023/08/14 04:46:51;;;;;;;1.38;1.15;;;18.30;99.90;;;;;;4121674;28;20446;-67
2023/08/14 04:48:54;;;;;;;1.75;0.98;;;18.30;99.90;;;;;;4123401;28;20035;-68
2023/08/14 04:50:55;;;;;;;1.45;1.17;;;18.20;99.90;;;;;;4130532;28;20042;-66
2023/08/14 04:52:55;;;;;;;2.80;1.25;;;18.20;99.90;;;;;;4121483;28;20038;-67
2023/08/14 04:54:56;;;;;;;3.78;1.20;;;18.30;99.90;;;;;;4115157;28;20097;-67
2023/08/14 04:56:56;;;;;;;1.20;0.93;;;18.30;99.90;;;;;;4140706;28;20030;-68
2023/08/14 04:58:57;;;;;;;2.35;1.15;;;18.30;99.90;;;;;;4126610;28;20396;-73
2023/08/14 05:01:00;;;;;;;1.33;0.90;;;18.30;99.90;;;;;;4137803;28;20046;-74
2023/08/14 05:03:01;;;;;;;2.67;1.15;;;18.30;99.90;;;;;;4126391;28;20034;-74
2023/08/14 05:05:01;;;;;;;2.08;1.00;;;18.30;99.90;;;;;;4125245;28;20755;-74
2023/08/14 05:07:02;;;;;;;2.10;1.13;;;18.40;99.90;;;;;;4126163;28;20031;-73
2023/08/14 05:09:03;;;;;;;1.77;0.90;;;18.40;99.90;;;;;;4125349;28;20084;-74
2023/08/14 05:11:04;;;;;;;1.85;1.15;;;18.40;99.90;;;;;;4121155;28;20034;-74
2023/08/14 05:13:04;;;;;;;1.13;1.00;;;18.40;99.90;;;;;;4128605;28;20037;-74
2023/08/14 05:15:05;;;;;;;1.35;0.98;;;18.40;99.90;;;;;;4129665;28;20034;-71
2023/08/14 05:17:06;;;;;;;1.58;0.90;;;18.50;99.90;;;;;;4126481;28;20573;-73
2023/08/14 05:19:07;;;;;;;1.30;1.15;;;18.50;99.90;;;;;;4127562;28;20038;-73
2023/08/14 05:21:07;;;;;;;2.63;1.40;;;18.50;99.90;;;;;;4133600;28;20101;-73
2023/08/14 05:23:11;;;;;;;1.45;1.20;;;18.50;99.90;;;;;;4123470;28;20402;-73
2023/08/14 05:25:12;;;;;;;1.83;1.30;;;18.50;99.90;;;;;;4121644;28;20431;-71
2023/08/14 05:27:15;;;;;;;2.15;1.42;;;18.50;99.90;;;;;;4122354;28;20534;-73
2023/08/14 05:29:15;;;;;;;3.20;1.38;;;18.50;99.90;;;;;;4115486;28;20034;-73
2023/08/14 05:31:16;;;;;;;3.42;1.38;;;18.60;99.90;;;;;;4123392;28;20044;-73
2023/08/14 05:33:17;;;;;;;3.08;1.80;;;18.60;99.90;;;;;;4118387;28;20045;-73
2023/08/14 05:35:23;;;;;;;3.28;1.98;;;18.60;99.90;;;;;;4122849;28;20038;-73
2023/08/14 05:37:24;;;;;;;2.25;1.55;;;18.70;99.90;;;;;;4134875;28;20057;-73
2023/08/14 05:39:24;;;;;;;2.47;1.90;;;18.70;99.90;;;;;;4123757;28;20525;-73
2023/08/14 05:41:25;;;;;;;5.50;2.75;;;18.70;99.90;;;;;;4121357;28;20065;-73
2023/08/14 05:43:26;;;;;;;7.57;3.20;;;18.80;99.90;;;;;;4125695;28;20026;-72
2023/08/14 05:45:26;;;;;;;8.00;3.50;;;18.80;99.90;;;;;;4124804;28;20085;-73
2023/08/14 05:47:27;;;;;;;4.40;2.85;;;18.80;99.90;;;;;;4106586;28;20038;-73
2023/08/14 05:49:30;;;;;;;8.98;3.35;;;18.80;99.90;;;;;;4120678;28;20035;-73
2023/08/14 05:51:31;;;;;;;6.93;2.88;;;18.90;99.90;;;;;;4127197;28;20038;-73
2023/08/14 05:53:31;;;;;;;4.93;2.95;;;18.90;99.90;;;;;;4105043;28;20070;-73
2023/08/14 05:55:41;;;;;;;6.47;3.20;;;18.90;99.90;;;;;;4129995;28;20045;-72
2023/08/14 05:57:41;;;;;;;11.30;3.28;;;19.00;99.90;;;;;;4128134;28;20058;-73
2023/08/14 05:59:42;;;;;;;4.55;2.42;;;19.00;99.90;;;;;;4125553;28;20045;-70
2023/08/14 06:01:42;;;;;;;4.72;2.60;;;19.10;99.90;;;;;;4124618;28;20054;-73
2023/08/14 06:03:43;;;;;;;8.10;3.45;;;19.10;99.90;;;;;;4127826;28;20030;-71
2023/08/14 06:05:44;;;;;;;6.93;3.10;;;19.10;99.90;;;;;;4123269;28;20464;-73
2023/08/14 06:07:46;;;;;;;8.57;3.40;;;19.20;99.90;;;;;;4117786;28;20054;-73
2023/08/14 06:09:47;;;;;;;7.55;2.95;;;19.20;99.90;;;;;;4127333;28;20045;-72
2023/08/14 06:11:48;;;;;;;7.85;3.40;;;19.20;99.90;;;;;;4126638;28;20399;-73
2023/08/14 06:13:50;;;;;;;5.68;3.53;;;19.20;99.90;;;;;;4127425;28;20034;-73
2023/08/14 06:15:51;;;;;;;;;;;19.20;99.90;;;;;;4135610;28;20045;-71
2023/08/14 06:17:53;;;;;;;4.45;2.97;;;19.20;99.90;;;;;;4121283;28;19953;-73
2023/08/14 06:19:56;;;;;;;5.22;3.10;;;19.20;99.90;;;;;;4124531;28;20057;-68
2023/08/14 06:21:57;;;;;;;6.00;3.38;;;19.20;99.90;;;;;;4130026;28;20081;-73
2023/08/14 06:23:57;;;;;;;12.02;4.07;;;19.20;99.90;;;;;;4121650;28;20053;-71
2023/08/14 06:25:58;;;;;;;6.03;2.88;;;19.20;99.90;;;;;;4124720;28;20084;-68
2023/08/14 06:27:59;;;;;;;6.93;3.67;;;19.30;99.90;;;;;;4126027;28;20126;-73
2023/08/14 06:30:02;;;;;;;8.70;3.67;;;19.30;99.90;;;;;;4116118;28;20125;-71
2023/08/14 06:32:05;;;;;;;5.15;2.92;;;19.30;99.90;;;;;;4129869;28;20030;-73
2023/08/14 06:34:06;;;;;;;4.43;2.67;;;19.30;99.90;;;;;;4125834;28;20077;-73
2023/08/14 06:36:06;;;;;;;5.35;3.38;;;19.30;99.90;;;;;;4126824;28;20042;-69
2023/08/14 06:38:07;;;;;;;6.22;3.20;;;19.30;99.90;;;;;;4127625;28;20423;-73
2023/08/14 06:40:09;;;;;;;5.28;2.60;;;19.40;99.90;;;;;;4132984;28;20034;-71
2023/08/14 06:42:09;;;;;;;8.20;3.10;;;19.40;99.90;;;;;;4116902;28;20046;-73
2023/08/14 06:44:10;;;;;;;5.65;3.17;;;19.50;99.90;;;;;;4125834;28;20511;-73
2023/08/14 06:46:11;;;;;;;7.55;3.38;;;19.50;99.90;;;;;;4137701;28;20022;-72
2023/08/14 06:48:12;;;;;;;5.78;3.30;;;19.50;99.90;;;;;;4125289;28;20427;-74
2023/08/14 06:50:13;;;;;;;4.38;2.92;;;19.60;99.90;;;;;;4124297;28;20053;-73
2023/08/14 06:52:17;;;;;;;5.68;2.72;;;19.60;99.90;;;;;;4127205;28;20077;-73
2023/08/14 06:54:17;;;;;;;4.20;2.85;;;19.60;99.90;;;;;;4129021;28;20039;-74
2023/08/14 06:56:19;;;;;;;6.47;3.17;;;19.70;99.90;;;;;;4129704;28;20031;-72
2023/08/14 06:58:22;;;;;;;8.13;3.90;;;19.70;99.90;;;;;;4128469;28;20646;-73
2023/08/14 07:00:22;;;;;;;5.53;2.97;;;19.60;99.90;;;;;;4129018;28;20073;-73
2023/08/14 07:02:23;;;;;;;4.18;2.63;;;19.70;99.90;;;;;;4128890;28;20121;-71
2023/08/14 07:04:24;;;;;;;5.72;3.17;;;19.70;99.90;;;;;;4128653;28;20029;-73
2023/08/14 07:06:24;;;;;;;6.00;3.10;;;19.70;99.90;;;;;;4125233;28;20050;-73
2023/08/14 07:08:28;;;;;;;8.00;3.53;;;19.80;99.90;;;;;;4131250;28;20080;-73
2023/08/14 07:10:29;;;;;;;6.53;3.53;;;19.80;99.90;;;;;;4118318;28;20085;-71
2023/08/14 07:12:30;;;;;;;5.85;3.35;;;19.70;99.90;;;;;;4136312;28;20050;-71
2023/08/14 07:14:31;;;;;;;6.40;3.60;;;19.70;99.90;;;;;;4093626;28;20034;-73
2023/08/14 07:16:32;;;;;;;8.23;3.78;;;19.70;99.90;;;;;;4139189;28;20500;-73
2023/08/14 07:18:32;;;;;;;9.40;3.53;;;19.70;99.90;;;;;;4123873;28;20045;-72
2023/08/14 07:20:33;;;;;;;7.55;3.50;;;19.70;99.90;;;;;;4114560;28;20038;-73
2023/08/14 07:22:37;;;;;;;6.35;3.40;;;19.70;99.90;;;;;;4111185;28;20078;-72
2023/08/14 07:24:38;;;;;;;7.38;3.85;;;19.80;99.90;;;;;;4132395;28;20038;-73
2023/08/14 07:26:40;;;;;;;6.18;3.38;;;19.80;99.90;;;;;;4124187;28;20129;-71
2023/08/14 07:28:41;;;;;;;4.07;2.80;;;19.80;99.90;;;;;;4122123;28;20169;-73
2023/08/14 07:30:42;;;;;;;7.38;3.58;;;19.80;99.90;;;;;;4116328;28;20043;-74
2023/08/14 07:32:42;;;;;;;7.70;3.42;;;19.90;99.90;;;;;;4131054;28;20125;-73
2023/08/14 07:34:43;;;;;;;8.27;4.38;;;19.90;99.90;;;;;;4114649;28;20043;-73
2023/08/14 07:36:43;;;;;;;8.52;3.90;;;19.90;99.90;;;;;;4121251;28;20116;-73
2023/08/14 07:38:50;;;;;;;7.95;3.95;;;19.90;99.90;;;;;;4114897;28;20487;-71
2023/08/14 07:40:50;;;;;;;9.45;4.00;;;19.90;99.90;;;;;;4115047;28;21932;-69
2023/08/14 07:42:51;;;;;;;5.97;3.55;;;20.00;99.90;;;;;;4120934;28;20035;-69
2023/08/14 07:44:51;;;;;;;10.88;4.10;;;20.00;99.90;;;;;;4108988;28;20034;-72
2023/08/14 07:46:52;;;;;;;7.72;4.25;;;20.10;99.90;;;;;;4086132;28;20137;-70
2023/08/14 07:48:56;;;;;;;7.20;4.00;;;20.20;99.90;;;;;;4114924;28;20508;-70
2023/08/14 07:50:57;;;;;;;9.55;4.45;;;20.20;99.90;;;;;;4107593;28;20852;-70
2023/08/14 07:53:01;;;;;;;10.07;4.20;;;20.30;99.90;;;;;;4114525;28;20061;-73
2023/08/14 07:55:03;;;;;;;8.13;4.07;;;20.40;99.90;;;;;;4112168;28;20038;-73
2023/08/14 07:57:03;;;;;;;8.55;4.22;;;20.50;99.90;;;;;;4103246;28;20041;-66
2023/08/14 07:59:05;;;;;;;7.75;3.55;;;20.60;99.90;;;;;;4104887;28;20042;-67
2023/08/14 08:01:06;;;;;;;10.02;3.95;;;20.60;99.90;;;;;;4100162;28;20570;-65
2023/08/14 08:03:07;;;;;;;8.45;3.67;;;20.70;99.90;;;;;;4110407;28;20072;-65
2023/08/14 08:05:08;;;;;;;7.20;3.70;;;20.90;99.90;;;;;;4131973;28;20438;-65
2023/08/14 08:07:08;;;;;;;20.67;4.35;;;21.00;99.90;;;;;;4121689;28;20502;-65
2023/08/14 08:09:09;;;;;;;6.78;3.80;;;21.10;99.90;;;;;;4122316;28;20037;-66
2023/08/14 08:11:12;;;;;;;10.82;4.13;;;21.30;99.90;;;;;;4121674;28;20387;-66
2023/08/14 08:13:13;;;;;;;6.07;3.30;;;21.30;99.90;;;;;;4122138;28;20566;-66
2023/08/14 08:15:14;;;;;;;5.55;3.45;;;21.50;99.90;;;;;;4122757;28;20030;-66
2023/08/14 08:17:16;;;;;;;7.22;4.05;;;21.60;99.90;;;;;;4123365;28;20030;-66
2023/08/14 08:19:17;;;;;;;;;;;21.70;99.90;;;;;;4121412;28;20483;-65
2023/08/14 08:21:18;;;;;;;8.93;3.35;;;21.80;99.90;;;;;;4132703;28;19960;-67
2023/08/14 08:23:21;;;;;;;7.40;3.42;;;22.00;99.90;;;;;;4105081;28;20392;-66
2023/08/14 08:25:22;;;;;;;6.05;3.03;;;22.10;99.90;;;;;;4106029;28;20495;-65
2023/08/14 08:27:22;;;;;;;3.80;2.55;;;22.30;99.90;;;;;;4108273;28;20041;-66
2023/08/14 08:29:23;;;;;;;7.55;3.13;;;22.40;99.90;;;;;;4121884;28;21456;-67
2023/08/14 08:31:24;;;;;;;5.13;2.60;;;22.50;99.90;;;;;;4121851;28;20395;-66
2023/08/14 08:33:25;;;;;;;7.07;3.00;;;22.70;99.90;;;;;;4123498;28;20189;-66
2023/08/14 08:35:25;;;;;;;7.63;3.25;;;22.80;99.90;;;;;;4106394;28;20051;-66
2023/08/14 08:37:28;;;;;;;5.25;2.83;;;22.90;99.90;;;;;;4119089;28;20039;-66
2023/08/14 08:39:29;;;;;;;5.88;2.60;;;23.10;99.90;;;;;;4118262;28;20065;-66
2023/08/14 08:41:38;;;;;;;7.35;2.67;;;23.20;99.90;;;;;;4124465;28;20050;-68
2023/08/14 08:43:42;;;;;;;3.53;2.22;;;23.30;99.90;;;;;;4118027;28;20410;-66
2023/08/14 08:45:49;;;;;;;4.97;2.50;;;23.50;99.90;;;;;;4117639;28;20439;-67
2023/08/14 08:47:53;;;;;;;4.82;2.50;;;23.60;99.90;;;;;;4119607;28;20416;-67
2023/08/14 08:49:55;;;;;;;6.70;2.67;;;23.60;99.90;;;;;;4120981;28;21470;-66
2023/08/14 08:51:56;;;;;;;5.88;2.55;;;23.70;99.90;;;;;;4135322;28;20044;-68
2023/08/14 08:53:58;;;;;;;5.88;2.50;;;23.90;99.90;;;;;;4117639;28;20042;-66
2023/08/14 08:56:00;;;;;;;5.53;2.42;;;24.00;99.90;;;;;;4122045;28;20030;-66
2023/08/14 08:58:05;;;;;;;3.42;1.88;;;24.10;99.90;;;;;;4119167;28;20042;-66
2023/08/14 09:00:06;;;;;;;5.22;2.42;;;24.20;99.90;;;;;;4118963;28;20061;-68
2023/08/14 09:02:08;;;;;;;4.90;2.77;;;24.30;99.90;;;;;;4110764;28;20053;-67
2023/08/14 09:04:09;;;;;;;4.03;2.33;;;24.40;99.90;;;;;;4101030;28;20560;-66
2023/08/14 09:06:12;;;;;;;6.22;2.70;;;24.50;99.90;;;;;;4094950;28;20061;-66
2023/08/14 09:08:14;;;;;;;4.25;2.45;;;24.60;99.90;;;;;;4090677;28;20169;-68
2023/08/14 09:10:17;;;;;;;5.55;2.22;;;24.70;99.90;;;;;;4115132;28;20053;-68
2023/08/14 09:12:18;;;;;;;5.63;2.47;;;24.80;99.90;;;;;;4116363;28;20041;-68
2023/08/14 09:14:22;;;;;;;4.75;2.20;;;24.80;99.90;;;;;;4124179;28;20030;-69
2023/08/14 09:16:29;;;;;;;4.22;2.33;;;25.00;99.90;;;;;;4110805;28;20030;-68
2023/08/14 09:18:31;;;;;;;6.45;2.60;;;25.00;99.90;;;;;;4118033;28;20046;-68
2023/08/14 09:20:32;;;;;;;3.63;2.13;;;25.10;99.90;;;;;;4115691;28;20080;-68
2023/08/14 09:22:32;;;;;;;3.67;1.95;;;25.10;99.90;;;;;;4119640;28;20030;-69
2023/08/14 09:24:34;;;;;;;4.95;2.10;;;25.10;99.90;;;;;;4131884;28;20049;-68
2023/08/14 09:26:38;;;;;;;6.50;2.47;;;25.20;99.90;;;;;;4118522;28;20532;-68
2023/08/14 09:28:39;;;;;;;8.05;2.70;;;25.30;99.90;;;;;;4111706;28;20054;-68
2023/08/14 09:30:40;;;;;;;5.47;2.10;;;25.30;99.90;;;;;;4116485;28;20576;-69
2023/08/14 09:32:44;;;;;;;3.55;2.20;;;25.30;99.90;;;;;;4101246;28;20061;-69
2023/08/14 09:34:47;;;;;;;4.20;2.20;;;25.40;99.90;;;;;;4093845;28;20035;-69
2023/08/14 09:36:48;;;;;;;5.40;2.58;;;25.40;99.90;;;;;;4120166;28;20037;-69
2023/08/14 09:38:55;;;;;;;7.22;2.30;;;25.30;99.90;;;;;;4119252;28;20577;-68
2023/08/14 09:40:59;;;;;;;4.00;1.98;;;25.40;99.90;;;;;;4110202;28;20042;-69
2023/08/14 09:43:01;;;;;;;3.95;1.98;;;25.40;99.90;;;;;;4119568;28;20141;-69
2023/08/14 09:45:02;;;;;;;9.13;2.47;;;25.50;99.90;;;;;;4116822;28;20046;-68
2023/08/14 09:47:07;;;;;;;5.88;2.10;;;25.50;99.90;;;;;;4109706;28;20046;-69
2023/08/14 09:49:13;;;;;;;5.05;2.30;;;25.50;99.90;;;;;;4110653;28;20070;-69
2023/08/14 09:51:19;;;;;;;4.97;2.00;;;25.60;99.90;;;;;;4108543;28;20038;-69
2023/08/14 09:53:20;;;;;;;4.43;2.08;;;25.50;99.90;;;;;;4113029;28;20038;-69
2023/08/14 09:55:24;;;;;;;4.57;2.00;;;25.60;99.90;;;;;;4121098;28;20061;-68
2023/08/14 09:57:25;;;;;;;4.03;1.85;;;25.60;99.90;;;;;;4119831;28;20090;-68
2023/08/14 09:59:26;;;;;;;3.38;1.90;;;25.70;99.90;;;;;;4114357;28;21156;-68
2023/08/14 10:01:28;;;;;;;3.23;1.57;;;25.80;99.90;;;;;;4130956;28;20396;-69
2023/08/14 10:03:33;;;;;;;3.47;2.03;;;25.80;99.90;;;;;;4120516;28;20069;-69
2023/08/14 10:05:34;;;;;;;3.85;1.67;;;25.80;99.90;;;;;;4080633;28;20433;-68
2023/08/14 10:07:37;;;;;;;5.05;1.90;;;25.90;99.90;;;;;;4113918;28;20046;-69
2023/08/14 10:09:59;;;;;;;6.53;2.22;;;26.00;99.90;;;;;;4120401;28;20050;-69
2023/08/14 10:12:06;;;;;;;4.63;1.95;;;26.00;99.90;;;;;;4119760;28;20092;-69
2023/08/14 10:14:09;;;;;;;5.28;2.05;;;26.00;99.90;;;;;;4119854;28;20038;-69
2023/08/14 10:16:14;;;;;;;2.90;1.58;;;26.00;99.90;;;;;;4119905;28;20042;-68
2023/08/14 10:18:22;;;;;;;5.03;2.15;;;26.00;99.90;;;;;;4121082;28;20492;-67
2023/08/14 10:20:24;;;;;;;2.60;1.42;;;26.00;99.90;;;;;;4117695;28;20045;-66
2023/08/14 10:22:25;;;;;;;3.08;1.80;;;26.10;99.90;;;;;;4115963;28;20046;-66
2023/08/14 10:24:27;;;;;;;5.25;2.10;;;26.10;99.90;;;;;;4124940;28;20035;-66
2023/08/14 10:26:29;;;;;;;3.05;1.67;;;26.20;99.90;;;;;;4124779;28;20049;-66
2023/08/14 10:28:30;;;;;;;5.38;2.00;;;26.20;99.60;;;;;;4125702;28;20044;-66
2023/08/14 10:30:31;;;;;;;4.82;1.85;;;26.30;99.20;;;;;;4124426;28;20533;-66
2023/08/14 10:32:34;;;;;;;3.03;1.35;;;26.30;99.20;;;;;;4126318;28;20542;-66
2023/08/14 10:34:38;;;;;;;5.97;1.67;;;26.30;98.60;;;;;;4125779;28;20035;-66
2023/08/14 10:36:39;;;;;;;3.67;1.52;;;26.40;99.30;;;;;;4136055;28;20758;-65